Time;durP1;ratioP1;P1;durP2;ratioP2;P2;SDS_P1;SDS_P2;PMS_P1;PMS_P2;Temp;Humidity;BMP_temperature;BMP_pressure;BME280_temperature;BME280_humidity;BME280_pressure;Samples;Min_cycle;Max_cycle;Signal;HPM_P1;HPM_P2
2021/03/30 00:01:31;;;;;;;2.17;0.80;;;;;;;;;;5092892;28;20081;-55
2021/03/30 00:03:58;;;;;;;2.00;0.53;;;;;;;;;;5092327;28;20426;-55
2021/03/30 00:06:24;;;;;;;1.83;1.00;;;;;;;;;;5092834;28;20028;-55
2021/03/30 00:08:51;;;;;;;3.00;0.87;;;;;;;;;;5092800;28;20481;-55
2021/03/30 00:11:18;;;;;;;4.97;1.07;;;;;;;;;;5092843;28;20023;-55
2021/03/30 00:13:45;;;;;;;2.23;0.80;;;;;;;;;;5092605;28;20032;-55
2021/03/30 00:16:12;;;;;;;1.80;1.17;;;;;;;;;;5093078;28;20048;-55
2021/03/30 00:18:39;;;;;;;1.63;0.60;;;;;;;;;;5092751;28;20016;-55
2021/03/30 00:21:06;;;;;;;3.47;0.90;;;;;;;;;;5092668;28;20028;-55
2021/03/30 00:23:33;;;;;;;3.17;1.03;;;;;;;;;;5092895;28;20028;-55
2021/03/30 00:26:00;;;;;;;2.53;0.97;;;;;;;;;;5092669;28;20083;-55
2021/03/30 00:28:27;;;;;;;2.40;0.93;;;;;;;;;;5092740;28;20083;-55
2021/03/30 00:30:54;;;;;;;1.47;0.90;;;;;;;;;;5092643;28;20050;-55
2021/03/30 00:33:21;;;;;;;1.80;0.83;;;;;;;;;;5092540;28;20031;-55
2021/03/30 00:35:48;;;;;;;2.70;1.07;;;;;;;;;;5092689;28;20094;-55
2021/03/30 00:38:15;;;;;;;2.30;1.07;;;;;;;;;;5092600;28;20028;-55
2021/03/30 00:40:41;;;;;;;2.33;0.90;;;;;;;;;;5096457;28;20020;-55
2021/03/30 00:43:08;;;;;;;4.80;0.80;;;;;;;;;;5096291;28;20027;-55
2021/03/30 00:45:35;;;;;;;5.43;1.30;;;;;;;;;;5096326;28;20016;-55
2021/03/30 00:48:02;;;;;;;8.30;0.70;;;;;;;;;;5096278;28;20024;-55
2021/03/30 00:50:29;;;;;;;1.47;0.73;;;;;;;;;;5096146;28;20027;-55
2021/03/30 00:52:56;;;;;;;1.80;0.70;;;;;;;;;;5096022;28;20394;-55
2021/03/30 00:55:23;;;;;;;1.93;0.90;;;;;;;;;;5096154;28;20047;-55
2021/03/30 00:57:50;;;;;;;2.67;0.77;;;;;;;;;;5096028;28;20035;-55
2021/03/30 01:00:18;;;;;;;1.73;0.73;;;;;;;;;;5096189;28;20065;-55
2021/03/30 01:02:44;;;;;;;2.97;1.30;;;;;;;;;;5095661;28;20102;-55
2021/03/30 01:05:12;;;;;;;3.27;1.27;;;;;;;;;;5095994;28;20102;-54
2021/03/30 01:07:43;;;;;;;2.77;1.00;;;;;;;;;;5095821;28;20463;-52
2021/03/30 01:10:30;;;;;;;3.10;1.60;;;;;;;;;;5096092;28;20020;-54
2021/03/30 01:12:57;;;;;;;5.10;1.00;;;;;;;;;;5082041;28;20040;-55
2021/03/30 01:15:46;;;;;;;1.83;0.80;;;;;;;;;;5095674;28;20030;-55
2021/03/30 01:18:18;;;;;;;8.37;1.10;;;;;;;;;;5095578;28;20032;-55
2021/03/30 01:20:54;;;;;;;3.93;0.93;;;;;;;;;;5095548;28;20024;-55
2021/03/30 01:23:30;;;;;;;8.80;1.93;;;;;;;;;;5095555;28;20020;-55
2021/03/30 01:26:19;;;;;;;14.07;1.27;;;;;;;;;;5095597;28;20120;-55
2021/03/30 01:28:46;;;;;;;4.70;0.80;;;;;;;;;;5085212;28;20393;-55
2021/03/30 01:31:13;;;;;;;2.10;1.07;;;;;;;;;;5095471;28;20038;-55
2021/03/30 01:33:42;;;;;;;2.27;0.83;;;;;;;;;;5095256;28;20048;-55
2021/03/30 01:36:09;;;;;;;3.00;1.37;;;;;;;;;;5095670;28;20024;-55
2021/03/30 01:38:36;;;;;;;2.13;0.90;;;;;;;;;;5095301;28;20038;-55
2021/03/30 01:41:03;;;;;;;2.03;0.70;;;;;;;;;;5095163;28;20064;-55
2021/03/30 01:43:30;;;;;;;3.17;0.87;;;;;;;;;;5095074;28;20032;-55
2021/03/30 01:45:57;;;;;;;2.80;0.83;;;;;;;;;;5095091;28;20030;-55
2021/03/30 01:48:25;;;;;;;1.93;0.70;;;;;;;;;;5095101;28;20394;-55
2021/03/30 01:50:55;;;;;;;2.93;1.00;;;;;;;;;;5095067;28;20020;-55
2021/03/30 01:53:23;;;;;;;1.93;0.70;;;;;;;;;;5094881;28;20043;-55
2021/03/30 01:55:51;;;;;;;3.27;0.97;;;;;;;;;;5095021;28;20035;-55
2021/03/30 01:58:20;;;;;;;1.80;0.80;;;;;;;;;;5094941;28;20509;-55
2021/03/30 02:00:48;;;;;;;1.17;0.60;;;;;;;;;;5095000;28;20076;-54
2021/03/30 02:03:28;;;;;;;1.03;0.60;;;;;;;;;;5093964;28;20052;-55
2021/03/30 02:05:56;;;;;;;3.00;0.80;;;;;;;;;;5094688;28;20394;-55
2021/03/30 02:08:24;;;;;;;2.07;0.60;;;;;;;;;;5094768;28;20028;-55
2021/03/30 02:10:54;;;;;;;2.57;0.77;;;;;;;;;;5094633;28;20111;-55
2021/03/30 02:13:25;;;;;;;2.07;0.60;;;;;;;;;;5094342;28;20486;-55
2021/03/30 02:15:56;;;;;;;1.20;0.50;;;;;;;;;;5094645;28;20059;-54
2021/03/30 02:18:24;;;;;;;1.57;0.70;;;;;;;;;;5094639;28;20073;-55
2021/03/30 02:20:57;;;;;;;2.17;0.60;;;;;;;;;;5094565;28;20073;-55
2021/03/30 02:23:25;;;;;;;2.73;0.70;;;;;;;;;;5094463;28;20078;-54
2021/03/30 02:25:57;;;;;;;2.13;0.80;;;;;;;;;;5094373;28;20024;-55
2021/03/30 02:28:26;;;;;;;2.37;0.73;;;;;;;;;;5094580;28;20035;-55
2021/03/30 02:30:54;;;;;;;2.33;0.80;;;;;;;;;;5094326;28;20066;-55
2021/03/30 02:33:22;;;;;;;3.87;1.27;;;;;;;;;;5094103;28;20107;-54
2021/03/30 02:35:55;;;;;;;4.27;1.53;;;;;;;;;;5094158;28;20024;-54
2021/03/30 02:38:22;;;;;;;6.20;1.90;;;;;;;;;;5094056;28;20394;-54
2021/03/30 02:40:51;;;;;;;5.73;1.83;;;;;;;;;;5094361;28;20073;-55
2021/03/30 02:43:19;;;;;;;14.07;2.23;;;;;;;;;;5094062;28;20028;-55
2021/03/30 02:45:47;;;;;;;6.53;1.50;;;;;;;;;;5093940;28;20571;-54
2021/03/30 02:48:14;;;;;;;6.17;1.43;;;;;;;;;;5093983;28;20024;-54
2021/03/30 02:50:41;;;;;;;3.03;1.30;;;;;;;;;;5093910;28;20024;-54
2021/03/30 02:53:08;;;;;;;4.57;1.73;;;;;;;;;;5093792;28;20028;-55
2021/03/30 02:55:37;;;;;;;6.90;1.57;;;;;;;;;;5093771;28;20020;-55
2021/03/30 02:58:08;;;;;;;5.27;1.40;;;;;;;;;;5093765;28;20058;-54
2021/03/30 03:00:39;;;;;;;2.83;1.03;;;;;;;;;;5093690;28;20483;-54
2021/03/30 03:03:09;;;;;;;11.30;2.40;;;;;;;;;;5092714;28;20051;-55
2021/03/30 03:05:44;;;;;;;4.70;2.37;;;;;;;;;;5093294;28;20127;-54
2021/03/30 03:08:11;;;;;;;6.17;1.30;;;;;;;;;;5093569;28;20103;-54
2021/03/30 03:10:38;;;;;;;9.37;1.63;;;;;;;;;;5093697;28;20047;-55
2021/03/30 03:13:08;;;;;;;9.10;2.23;;;;;;;;;;5093380;28;20486;-55
2021/03/30 03:15:35;;;;;;;11.33;1.93;;;;;;;;;;5093553;28;20016;-54
2021/03/30 03:18:03;;;;;;;6.40;1.67;;;;;;;;;;5093429;28;20030;-55
2021/03/30 03:20:29;;;;;;;10.07;1.80;;;;;;;;;;5093382;28;20027;-55
2021/03/30 03:22:56;;;;;;;7.37;1.83;;;;;;;;;;5093396;28;20078;-54
2021/03/30 03:25:23;;;;;;;5.07;1.37;;;;;;;;;;5093350;28;20394;-55
2021/03/30 03:27:50;;;;;;;11.80;1.93;;;;;;;;;;5093332;28;20412;-55
2021/03/30 03:30:18;;;;;;;3.57;1.20;;;;;;;;;;5093301;28;20035;-54
2021/03/30 03:32:45;;;;;;;3.87;1.40;;;;;;;;;;5093173;28;20039;-54
2021/03/30 03:35:13;;;;;;;4.93;1.60;;;;;;;;;;5093150;28;20107;-55
2021/03/30 03:37:44;;;;;;;5.23;2.40;;;;;;;;;;5093502;28;20038;-54
2021/03/30 03:40:11;;;;;;;2.07;1.13;;;;;;;;;;5093102;28;20019;-55
2021/03/30 03:42:38;;;;;;;6.37;1.60;;;;;;;;;;5093040;28;20418;-55
2021/03/30 03:45:06;;;;;;;6.27;1.97;;;;;;;;;;5093105;28;20040;-54
2021/03/30 03:47:33;;;;;;;3.27;1.50;;;;;;;;;;5093065;28;20034;-54
2021/03/30 03:50:03;;;;;;;2.30;1.47;;;;;;;;;;5093065;28;20024;-55
2021/03/30 03:52:37;;;;;;;3.07;1.20;;;;;;;;;;5092956;28;20024;-55
2021/03/30 03:55:05;;;;;;;3.83;2.17;;;;;;;;;;5093228;28;20016;-55
2021/03/30 03:57:35;;;;;;;5.70;1.90;;;;;;;;;;5093079;28;20020;-55
2021/03/30 04:00:04;;;;;;;2.67;1.40;;;;;;;;;;5092864;28;20020;-55
2021/03/30 04:02:36;;;;;;;4.47;2.10;;;;;;;;;;5093007;28;20040;-55
2021/03/30 04:05:04;;;;;;;8.23;1.70;;;;;;;;;;5092362;28;20056;-55
2021/03/30 04:07:36;;;;;;;1.97;1.30;;;;;;;;;;5092924;28;20028;-55
2021/03/30 04:10:04;;;;;;;5.90;1.50;;;;;;;;;;5092811;28;20048;-55
2021/03/30 04:12:31;;;;;;;5.23;1.50;;;;;;;;;;5092804;28;20040;-55
2021/03/30 04:14:58;;;;;;;6.73;1.77;;;;;;;;;;5095649;28;20048;-55
2021/03/30 04:17:25;;;;;;;6.27;1.50;;;;;;;;;;5096890;28;20053;-55
2021/03/30 04:19:52;;;;;;;3.20;1.57;;;;;;;;;;5096817;28;20024;-55
2021/03/30 04:22:19;;;;;;;4.97;1.50;;;;;;;;;;5096681;28;20063;-52
2021/03/30 04:24:46;;;;;;;9.40;2.70;;;;;;;;;;5096756;28;20024;-53
2021/03/30 04:27:13;;;;;;;18.97;6.13;;;;;;;;;;5096787;28;20394;-53
2021/03/30 04:29:40;;;;;;;15.80;5.67;;;;;;;;;;5096728;28;20027;-53
2021/03/30 04:32:08;;;;;;;21.50;4.07;;;;;;;;;;5096563;28;20028;-53
2021/03/30 04:34:35;;;;;;;14.03;2.13;;;;;;;;;;5096473;28;20519;-52
2021/03/30 04:37:02;;;;;;;4.13;1.73;;;;;;;;;;5096479;28;20024;-52
2021/03/30 04:39:29;;;;;;;11.23;2.50;;;;;;;;;;5096388;28;20062;-53
2021/03/30 04:41:55;;;;;;;8.60;2.30;;;;;;;;;;5096364;28;20107;-53
2021/03/30 04:44:22;;;;;;;7.33;1.97;;;;;;;;;;5096295;28;20453;-52
2021/03/30 04:46:49;;;;;;;6.50;2.13;;;;;;;;;;5096210;28;20039;-52
2021/03/30 04:49:16;;;;;;;6.43;2.40;;;;;;;;;;5096259;28;20069;-53
2021/03/30 04:51:43;;;;;;;8.47;2.90;;;;;;;;;;5096168;28;20028;-53
2021/03/30 04:54:09;;;;;;;5.73;2.70;;;;;;;;;;5096062;28;20020;-52
2021/03/30 04:56:37;;;;;;;4.20;1.90;;;;;;;;;;5096431;28;20024;-52
2021/03/30 04:59:04;;;;;;;5.13;2.07;;;;;;;;;;5096028;28;20032;-52
2021/03/30 05:01:31;;;;;;;7.83;1.93;;;;;;;;;;5095936;28;20051;-53
2021/03/30 05:03:58;;;;;;;8.70;2.50;;;;;;;;;;5095554;28;20044;-53
2021/03/30 05:06:24;;;;;;;7.43;2.30;;;;;;;;;;5095921;28;20024;-52
2021/03/30 05:08:52;;;;;;;4.83;2.17;;;;;;;;;;5095944;28;20028;-52
2021/03/30 05:11:18;;;;;;;5.90;2.00;;;;;;;;;;5095869;28;20032;-52
2021/03/30 05:13:45;;;;;;;8.20;1.93;;;;;;;;;;5095783;28;20493;-52
2021/03/30 05:16:12;;;;;;;11.33;2.23;;;;;;;;;;5095922;28;20145;-52
2021/03/30 05:18:41;;;;;;;7.87;2.07;;;;;;;;;;5095854;28;20463;-52
2021/03/30 05:21:08;;;;;;;3.87;1.77;;;;;;;;;;5095642;28;20105;-52
2021/03/30 05:23:35;;;;;;;4.60;1.80;;;;;;;;;;5095564;28;20432;-52
2021/03/30 05:26:02;;;;;;;6.53;2.00;;;;;;;;;;5095180;28;20493;-52
2021/03/30 05:28:28;;;;;;;5.63;1.80;;;;;;;;;;5095507;28;20024;-52
2021/03/30 05:30:55;;;;;;;2.70;1.50;;;;;;;;;;5095478;28;20024;-52
2021/03/30 05:33:22;;;;;;;5.20;1.50;;;;;;;;;;5095311;28;20062;-52
2021/03/30 05:35:49;;;;;;;5.00;1.77;;;;;;;;;;5095380;28;20024;-52
2021/03/30 05:38:15;;;;;;;7.37;1.90;;;;;;;;;;5095378;28;20032;-52
2021/03/30 05:40:42;;;;;;;7.33;1.97;;;;;;;;;;5095375;28;20024;-52
2021/03/30 05:43:10;;;;;;;4.77;2.63;;;;;;;;;;5095250;28;20024;-52
2021/03/30 05:45:38;;;;;;;6.50;2.43;;;;;;;;;;5095211;28;20355;-53
2021/03/30 05:48:09;;;;;;;3.73;1.73;;;;;;;;;;5095102;28;20035;-52
2021/03/30 05:50:36;;;;;;;3.40;1.30;;;;;;;;;;5095162;28;20028;-52
2021/03/30 05:53:10;;;;;;;4.07;1.57;;;;;;;;;;5094903;28;20117;-52
2021/03/30 05:55:38;;;;;;;7.27;2.20;;;;;;;;;;5094948;28;20253;-52
2021/03/30 05:58:06;;;;;;;6.00;1.70;;;;;;;;;;5094934;28;20036;-52
2021/03/30 06:00:38;;;;;;;4.83;1.87;;;;;;;;;;5094827;28;20253;-52
2021/03/30 06:03:07;;;;;;;8.40;2.97;;;;;;;;;;5094577;28;20414;-52
2021/03/30 06:05:34;;;;;;;7.67;2.47;;;;;;;;;;5094451;28;20410;-52
2021/03/30 06:08:02;;;;;;;5.20;2.00;;;;;;;;;;5094698;28;20677;-52
2021/03/30 06:10:29;;;;;;;7.20;2.20;;;;;;;;;;5094666;28;20024;-52
2021/03/30 06:12:56;;;;;;;3.37;2.10;;;;;;;;;;5094524;28;20785;-52
2021/03/30 06:15:30;;;;;;;4.93;1.70;;;;;;;;;;5094625;28;20256;-52
2021/03/30 06:17:57;;;;;;;3.20;1.90;;;;;;;;;;5094502;28;20032;-52
2021/03/30 06:20:29;;;;;;;4.80;2.43;;;;;;;;;;5094504;28;20611;-53
2021/03/30 06:22:57;;;;;;;8.20;2.40;;;;;;;;;;5094481;28;20306;-52
2021/03/30 06:25:37;;;;;;;5.67;2.27;;;;;;;;;;5094329;28;20028;-52
2021/03/30 06:28:22;;;;;;;10.10;3.07;;;;;;;;;;5094296;28;20652;-52
2021/03/30 06:31:01;;;;;;;4.05;2.40;;;;;;;;;;5094271;28;20245;-52
2021/03/30 06:33:29;;;;;;;5.17;2.47;;;;;;;;;;5094106;28;20028;-52
2021/03/30 06:36:14;;;;;;;5.23;2.80;;;;;;;;;;5093847;28;20324;-52
2021/03/30 06:38:51;;;;;;;8.65;2.83;;;;;;;;;;5094203;28;20252;-52
2021/03/30 06:41:29;;;;;;;3.93;2.37;;;;;;;;;;5094014;28;20024;-52
2021/03/30 06:47:23;;;;;;;4.50;2.30;;;;;;;;;;5076132;28;20378;-55
2021/03/30 06:50:02;;;;;;;4.37;2.70;;;;;;;;;;5093926;28;20268;-55
2021/03/30 06:52:34;;;;;;;4.70;2.57;;;;;;;;;;5093753;28;20283;-55
2021/03/30 06:55:02;;;;;;;4.57;2.40;;;;;;;;;;5093819;28;20260;-55
2021/03/30 06:57:46;;;;;;;4.20;2.50;;;;;;;;;;5093733;28;20268;-55
2021/03/30 07:00:33;;;;;;;10.67;4.13;;;;;;;;;;5093699;28;20252;-55
2021/03/30 07:03:01;;;;;;;7.33;3.00;;;;;;;;;;5093488;28;20541;-55
2021/03/30 07:05:37;;;;;;;5.73;2.90;;;;;;;;;;5093297;28;20288;-55
2021/03/30 07:08:05;;;;;;;7.07;2.77;;;;;;;;;;5093559;28;20393;-54
2021/03/30 07:10:32;;;;;;;7.23;2.90;;;;;;;;;;5093699;28;20731;-55
2021/03/30 07:12:59;;;;;;;7.67;3.90;;;;;;;;;;5093422;28;20369;-55
2021/03/30 07:15:27;;;;;;;5.27;2.90;;;;;;;;;;5093471;28;20283;-54
2021/03/30 07:18:00;;;;;;;5.80;3.27;;;;;;;;;;5093390;28;20276;-55
2021/03/30 07:20:27;;;;;;;6.57;3.17;;;;;;;;;;5093427;28;20248;-55
2021/03/30 07:22:55;;;;;;;5.40;2.70;;;;;;;;;;5093349;28;20292;-55
2021/03/30 07:25:24;;;;;;;8.17;2.90;;;;;;;;;;5093453;28;20244;-55
2021/03/30 07:28:08;;;;;;;7.40;2.80;;;;;;;;;;5093578;28;20260;-55
2021/03/30 07:30:37;;;;;;;10.55;2.88;;;;;;;;;;5093325;28;20245;-55
2021/03/30 07:33:11;;;;;;;9.80;3.00;;;;;;;;;;5093099;28;20066;-55
2021/03/30 07:35:38;;;;;;;6.30;2.43;;;;;;;;;;5093244;28;20715;-55
2021/03/30 07:38:14;;;;;;;8.07;2.93;;;;;;;;;;5093395;28;20271;-54
2021/03/30 07:40:41;;;;;;;5.10;2.73;;;;;;;;;;5093151;28;20256;-54
2021/03/30 07:43:10;;;;;;;7.53;2.90;;;;;;;;;;5093132;28;20279;-54
2021/03/30 07:45:39;;;;;;;6.80;3.60;;;;;;;;;;5093106;28;20257;-55
2021/03/30 07:48:06;;;;;;;5.83;2.83;;;;;;;;;;5092873;28;20248;-55
2021/03/30 07:51:04;;;;;;;6.73;2.90;;;;;;;;;;5093114;28;20314;-55
2021/03/30 07:53:41;;;;;;;6.63;3.03;;;;;;;;;;5092438;28;20328;-55
2021/03/30 07:56:28;;;;;;;4.13;2.20;;;;;;;;;;5093057;28;20340;-54
2021/03/30 07:58:56;;;;;;;4.83;2.50;;;;;;;;;;5079195;28;20352;-56
2021/03/30 08:01:24;;;;;;;8.67;3.27;;;;;;;;;;5092776;28;20515;-55
2021/03/30 08:03:52;;;;;;;7.53;2.73;;;;;;;;;;5092721;28;20267;-55
2021/03/30 08:06:20;;;;;;;8.77;3.13;;;;;;;;;;5092052;28;20915;-54
2021/03/30 08:09:07;;;;;;;5.33;3.10;;;;;;;;;;5092880;28;20401;-55
2021/03/30 08:11:41;;;;;;;6.83;2.83;;;;;;;;;;5092776;28;20251;-55
2021/03/30 08:14:08;;;;;;;5.87;3.10;;;;;;;;;;5092643;28;20319;-55
2021/03/30 08:16:36;;;;;;;4.80;2.67;;;;;;;;;;5092793;28;20245;-55
2021/03/30 08:19:06;;;;;;;5.37;3.00;;;;;;;;;;5092761;28;20843;-54
2021/03/30 08:21:52;;;;;;;4.77;2.50;;;;;;;;;;5092724;28;20739;-55
2021/03/30 08:24:19;;;;;;;6.45;2.85;;;;;;;;;;5092937;28;20269;-55
2021/03/30 08:26:46;;;;;;;4.80;2.90;;;;;;;;;;5092715;28;20111;-55
2021/03/30 08:29:23;;;;;;;5.60;3.07;;;;;;;;;;5092625;28;20253;-55
2021/03/30 08:31:51;;;;;;;5.03;3.30;;;;;;;;;;5092803;28;20252;-55
2021/03/30 08:34:22;;;;;;;5.70;2.77;;;;;;;;;;5092921;28;20352;-54
2021/03/30 08:36:50;;;;;;;5.13;2.60;;;;;;;;;;5092563;28;20289;-55
2021/03/30 08:39:20;;;;;;;6.07;3.13;;;;;;;;;;5092487;28;20268;-55
2021/03/30 08:41:47;;;;;;;7.77;3.70;;;;;;;;;;5091259;28;20252;-54
2021/03/30 08:44:21;;;;;;;9.10;2.90;;;;;;;;;;5092559;28;20253;-54
2021/03/30 08:46:50;;;;;;;4.63;2.70;;;;;;;;;;5092460;28;20303;-54
2021/03/30 08:49:29;;;;;;;5.07;2.70;;;;;;;;;;5092459;28;20383;-55
2021/03/30 08:51:59;;;;;;;6.57;3.77;;;;;;;;;;5092245;28;20249;-54
2021/03/30 08:54:30;;;;;;;3.90;2.40;;;;;;;;;;5092396;28;20260;-55
2021/03/30 08:57:01;;;;;;;4.93;2.87;;;;;;;;;;5092445;28;20281;-54
2021/03/30 08:59:29;;;;;;;4.50;2.87;;;;;;;;;;5092769;28;20362;-54
2021/03/30 09:01:57;;;;;;;5.07;3.13;;;;;;;;;;5095887;28;20256;-54
2021/03/30 09:04:25;;;;;;;5.83;2.60;;;;;;;;;;5095513;28;20324;-55
2021/03/30 09:06:55;;;;;;;4.03;2.60;;;;;;;;;;5095988;28;20253;-55
2021/03/30 09:09:22;;;;;;;6.13;3.47;;;;;;;;;;5095886;28;20243;-55
2021/03/30 09:11:49;;;;;;;4.30;2.83;;;;;;;;;;5095767;28;20282;-54
2021/03/30 09:14:17;;;;;;;3.83;2.47;;;;;;;;;;5095791;28;20257;-54
2021/03/30 09:16:45;;;;;;;4.07;2.20;;;;;;;;;;5095790;28;20245;-55
2021/03/30 09:19:33;;;;;;;4.47;2.80;;;;;;;;;;5095972;28;20245;-55
2021/03/30 09:22:12;;;;;;;6.17;2.83;;;;;;;;;;5095495;28;20259;-55
2021/03/30 09:27:33;;;;;;;5.23;2.60;;;;;;;;;;5095929;28;20291;-54
2021/03/30 09:30:01;;;;;;;4.27;2.13;;;;;;;;;;5095469;28;20287;-54
2021/03/30 09:32:29;;;;;;;4.00;2.30;;;;;;;;;;5095234;28;20367;-54
2021/03/30 09:35:04;;;;;;;6.47;2.50;;;;;;;;;;5095378;28;20252;-55
2021/03/30 09:37:50;;;;;;;4.60;2.80;;;;;;;;;;5095339;28;20665;-54
2021/03/30 09:40:18;;;;;;;4.90;2.43;;;;;;;;;;5095314;28;20101;-54
2021/03/30 09:42:46;;;;;;;3.00;2.10;;;;;;;;;;5095150;28;20642;-54
2021/03/30 09:45:14;;;;;;;3.73;2.27;;;;;;;;;;5095347;28;20306;-54
2021/03/30 09:47:41;;;;;;;5.57;2.10;;;;;;;;;;5095186;28;20256;-54
2021/03/30 09:50:09;;;;;;;4.53;2.40;;;;;;;;;;5095246;28;20257;-54
2021/03/30 09:52:39;;;;;;;4.27;2.43;;;;;;;;;;5094967;28;20272;-55
2021/03/30 09:55:07;;;;;;;3.37;2.00;;;;;;;;;;5095077;28;20294;-54
2021/03/30 09:57:34;;;;;;;5.20;1.83;;;;;;;;;;5094944;28;20245;-55
2021/03/30 10:00:01;;;;;;;3.60;2.07;;;;;;;;;;5095012;28;20257;-54
2021/03/30 10:02:32;;;;;;;5.60;2.07;;;;;;;;;;5094764;28;20727;-55
2021/03/30 10:05:00;;;;;;;4.73;2.20;;;;;;;;;;5094378;28;20285;-55
2021/03/30 10:07:40;;;;;;;3.97;1.47;;;;;;;;;;5094772;28;20761;-54
2021/03/30 10:10:09;;;;;;;3.60;1.90;;;;;;;;;;5095005;28;20305;-54
2021/03/30 10:12:47;;;;;;;3.07;2.10;;;;;;;;;;5094546;28;20272;-54
2021/03/30 10:15:14;;;;;;;3.03;1.57;;;;;;;;;;5094564;28;20253;-54
2021/03/30 10:17:41;;;;;;;5.97;1.63;;;;;;;;;;5094516;28;20255;-55
2021/03/30 10:20:12;;;;;;;3.23;1.90;;;;;;;;;;5094482;28;20253;-54
2021/03/30 10:22:46;;;;;;;3.67;2.20;;;;;;;;;;5094392;28;20393;-54
2021/03/30 10:25:21;;;;;;;3.05;1.70;;;;;;;;;;5094363;28;20344;-54
2021/03/30 10:27:52;;;;;;;5.57;2.05;;;;;;;;;;5094483;28;20020;-55
2021/03/30 10:30:19;;;;;;;2.30;1.40;;;;;;;;;;5094368;28;20070;-54
2021/03/30 10:32:47;;;;;;;4.07;2.13;;;;;;;;;;5094219;28;20284;-54
2021/03/30 10:35:14;;;;;;;4.40;1.67;;;;;;;;;;5094315;28;20335;-54
2021/03/30 10:37:42;;;;;;;3.63;2.00;;;;;;;;;;5094190;28;20253;-55
2021/03/30 10:40:09;;;;;;;2.77;1.57;;;;;;;;;;5094225;28;20245;-54
2021/03/30 10:42:40;;;;;;;2.60;1.50;;;;;;;;;;5094107;28;20651;-55
2021/03/30 10:45:11;;;;;;;3.20;1.80;;;;;;;;;;5094324;28;20249;-54
2021/03/30 10:47:38;;;;;;;3.40;1.97;;;;;;;;;;5094018;28;20667;-55
2021/03/30 10:50:08;;;;;;;2.90;1.70;;;;;;;;;;5094067;28;20241;-55
2021/03/30 10:52:37;;;;;;;2.83;1.63;;;;;;;;;;5094032;28;20268;-55
2021/03/30 10:55:07;;;;;;;3.63;1.90;;;;;;;;;;5093845;28;20661;-55
2021/03/30 10:57:35;;;;;;;5.27;1.77;;;;;;;;;;5093785;28;20249;-54
2021/03/30 11:00:05;;;;;;;5.83;2.27;;;;;;;;;;5093823;28;20738;-54
2021/03/30 11:02:31;;;;;;;4.00;1.93;;;;;;;;;;5093618;28;20603;-55
2021/03/30 11:04:59;;;;;;;2.63;1.60;;;;;;;;;;5093205;28;20634;-55
2021/03/30 11:07:26;;;;;;;2.83;1.97;;;;;;;;;;5093741;28;20245;-55
2021/03/30 11:09:53;;;;;;;3.77;1.37;;;;;;;;;;5092321;28;20785;-54
2021/03/30 11:12:20;;;;;;;4.00;1.87;;;;;;;;;;5093599;28;20276;-54
2021/03/30 11:14:47;;;;;;;3.53;1.90;;;;;;;;;;5093493;28;20292;-55
2021/03/30 11:17:14;;;;;;;4.83;1.77;;;;;;;;;;5093471;28;20750;-54
2021/03/30 11:19:40;;;;;;;5.60;1.90;;;;;;;;;;5093384;28;20324;-54
2021/03/30 11:22:08;;;;;;;3.13;1.67;;;;;;;;;;5093039;28;20245;-54
2021/03/30 11:24:39;;;;;;;3.00;1.70;;;;;;;;;;5093212;28;20237;-55
2021/03/30 11:27:06;;;;;;;3.07;1.60;;;;;;;;;;5093393;28;20248;-54
2021/03/30 11:39:45;;;;;;;3.17;1.80;;;;;;;;;;5093266;28;20054;-55
2021/03/30 11:42:12;;;;;;;4.03;1.83;;;;;;;;;;5093081;28;20282;-54
2021/03/30 11:44:39;;;;;;;3.30;1.90;;;;;;;;;;5093049;28;20249;-54
2021/03/30 11:47:05;;;;;;;2.77;1.60;;;;;;;;;;5092967;28;20257;-54
2021/03/30 11:49:33;;;;;;;6.70;2.00;;;;;;;;;;5093015;28;20260;-55
2021/03/30 11:52:00;;;;;;;3.27;1.90;;;;;;;;;;5092877;28;20259;-54
2021/03/30 11:54:28;;;;;;;6.50;1.87;;;;;;;;;;5092975;28;20275;-54
2021/03/30 11:56:55;;;;;;;6.40;1.77;;;;;;;;;;5093041;28;20286;-54
2021/03/30 11:59:22;;;;;;;4.30;2.00;;;;;;;;;;5092930;28;20328;-54
2021/03/30 12:01:48;;;;;;;4.10;1.70;;;;;;;;;;5092711;28;20718;-54
2021/03/30 12:04:15;;;;;;;8.03;2.53;;;;;;;;;;5092874;28;20256;-55
2021/03/30 12:06:42;;;;;;;4.50;2.40;;;;;;;;;;5092469;28;20288;-55
2021/03/30 12:09:09;;;;;;;8.07;3.33;;;;;;;;;;5092814;28;20333;-55
2021/03/30 12:11:36;;;;;;;5.23;2.73;;;;;;;;;;5092820;28;20253;-55
2021/03/30 12:14:03;;;;;;;5.60;2.83;;;;;;;;;;5092705;28;20682;-55
2021/03/30 12:16:31;;;;;;;4.80;2.73;;;;;;;;;;5092860;28;20249;-55
2021/03/30 12:18:58;;;;;;;6.77;2.27;;;;;;;;;;5092693;28;20599;-54
2021/03/30 12:21:25;;;;;;;7.83;3.00;;;;;;;;;;5091511;28;20261;-54
2021/03/30 12:23:52;;;;;;;4.93;2.53;;;;;;;;;;5092936;28;20589;-54
2021/03/30 12:26:19;;;;;;;8.57;2.50;;;;;;;;;;5092664;28;20678;-54
2021/03/30 12:28:45;;;;;;;3.60;1.93;;;;;;;;;;5092603;28;20257;-54
2021/03/30 12:31:12;;;;;;;2.83;1.87;;;;;;;;;;5092540;28;20264;-54
2021/03/30 12:33:40;;;;;;;3.90;1.90;;;;;;;;;;5092481;28;20372;-55
2021/03/30 12:36:07;;;;;;;6.40;3.10;;;;;;;;;;5095654;28;20385;-55
2021/03/30 12:38:34;;;;;;;5.00;2.40;;;;;;;;;;5096542;28;20298;-54
2021/03/30 12:41:01;;;;;;;4.50;2.80;;;;;;;;;;5096525;28;20358;-54
2021/03/30 12:43:28;;;;;;;5.00;2.83;;;;;;;;;;5096457;28;20249;-54
2021/03/30 12:45:55;;;;;;;4.77;2.30;;;;;;;;;;5096380;28;20261;-54
2021/03/30 12:48:22;;;;;;;8.40;2.70;;;;;;;;;;5096723;28;20249;-55
2021/03/30 12:50:48;;;;;;;5.57;2.27;;;;;;;;;;5096299;28;20753;-54
2021/03/30 12:53:15;;;;;;;5.87;1.90;;;;;;;;;;5096098;28;20769;-54
2021/03/30 12:55:42;;;;;;;6.67;2.53;;;;;;;;;;5096301;28;20281;-54
2021/03/30 12:58:09;;;;;;;5.47;2.37;;;;;;;;;;5096200;28;20253;-54
2021/03/30 13:00:36;;;;;;;4.07;2.00;;;;;;;;;;5096099;28;20313;-54
2021/03/30 13:03:02;;;;;;;7.07;2.37;;;;;;;;;;5095895;28;20264;-55
2021/03/30 13:05:29;;;;;;;7.77;2.57;;;;;;;;;;5095496;28;20287;-55
2021/03/30 13:07:56;;;;;;;8.87;2.40;;;;;;;;;;5095925;28;20316;-54
2021/03/30 13:10:23;;;;;;;8.93;2.57;;;;;;;;;;5095888;28;20249;-55
2021/03/30 13:12:50;;;;;;;6.73;3.20;;;;;;;;;;5095692;28;20277;-55
2021/03/30 13:15:16;;;;;;;7.90;3.30;;;;;;;;;;5095885;28;20306;-55
2021/03/30 13:17:43;;;;;;;7.33;3.43;;;;;;;;;;5096006;28;20257;-54
2021/03/30 13:20:10;;;;;;;7.53;4.17;;;;;;;;;;5095695;28;20267;-55
2021/03/30 13:22:37;;;;;;;5.57;3.30;;;;;;;;;;5095678;28;20284;-54
2021/03/30 13:25:04;;;;;;;19.53;4.37;;;;;;;;;;5095641;28;20729;-55
2021/03/30 13:27:31;;;;;;;17.57;4.53;;;;;;;;;;5095670;28;20510;-55
2021/03/30 13:29:58;;;;;;;12.07;5.53;;;;;;;;;;5095963;28;20252;-55
2021/03/30 13:32:25;;;;;;;12.30;4.17;;;;;;;;;;5095424;28;20288;-55
2021/03/30 13:34:52;;;;;;;8.73;3.87;;;;;;;;;;5095416;28;20257;-54
2021/03/30 13:37:19;;;;;;;7.13;4.13;;;;;;;;;;5095366;28;20373;-55
2021/03/30 13:39:46;;;;;;;6.40;3.70;;;;;;;;;;5095376;28;20253;-55
2021/03/30 13:42:14;;;;;;;7.77;3.70;;;;;;;;;;5095217;28;20295;-55
2021/03/30 13:44:42;;;;;;;8.83;3.77;;;;;;;;;;5095276;28;20553;-55
2021/03/30 13:47:09;;;;;;;6.60;3.53;;;;;;;;;;5094914;28;20241;-55
2021/03/30 13:49:38;;;;;;;9.37;3.47;;;;;;;;;;5095223;28;20264;-55
2021/03/30 13:52:05;;;;;;;5.77;3.70;;;;;;;;;;5095030;28;20248;-55
2021/03/30 13:54:32;;;;;;;6.47;4.20;;;;;;;;;;5095316;28;20028;-55
2021/03/30 13:56:59;;;;;;;14.17;4.50;;;;;;;;;;5095043;28;20277;-55
2021/03/30 13:59:26;;;;;;;11.77;4.93;;;;;;;;;;5094992;28;20016;-55
2021/03/30 14:01:53;;;;;;;11.30;4.37;;;;;;;;;;5095089;28;20020;-55
2021/03/30 14:04:20;;;;;;;5.93;3.43;;;;;;;;;;5094806;28;20124;-55
2021/03/30 14:06:47;;;;;;;12.97;4.83;;;;;;;;;;5094586;28;20052;-55
2021/03/30 14:09:14;;;;;;;6.03;3.50;;;;;;;;;;5094732;28;20028;-55
2021/03/30 14:11:56;;;;;;;5.50;3.20;;;;;;;;;;5094815;28;20020;-53
2021/03/30 14:14:29;;;;;;;9.33;3.10;;;;;;;;;;5094704;28;20407;-53
2021/03/30 14:19:30;;;;;;;10.73;4.57;;;;;;;;;;5094640;28;20043;-54
2021/03/30 14:22:00;;;;;;;9.47;5.00;;;;;;;;;;5094475;28;20472;-53
2021/03/30 14:24:26;;;;;;;12.23;5.07;;;;;;;;;;5094535;28;20107;-53
2021/03/30 14:26:53;;;;;;;10.00;5.10;;;;;;;;;;5093150;28;20482;-53
2021/03/30 14:29:20;;;;;;;7.97;4.47;;;;;;;;;;5094455;28;20036;-54
2021/03/30 14:31:47;;;;;;;10.53;4.80;;;;;;;;;;5094348;28;20020;-54
2021/03/30 14:34:14;;;;;;;10.17;5.37;;;;;;;;;;5094247;28;20460;-53
2021/03/30 14:36:41;;;;;;;10.27;6.10;;;;;;;;;;5094279;28;20055;-53
2021/03/30 14:39:10;;;;;;;12.23;5.00;;;;;;;;;;5094272;28;20032;-54
2021/03/30 14:41:42;;;;;;;9.07;4.50;;;;;;;;;;5094025;28;20474;-54
2021/03/30 14:47:09;;;;;;;8.13;5.03;;;;;;;;;;5094142;28;20397;-54
2021/03/30 14:58:00;;;;;;;6.17;3.60;;;;;;;;;;5080081;28;20390;-54
2021/03/30 15:00:48;;;;;;;10.97;5.33;;;;;;;;;;5094095;28;20050;-54
2021/03/30 15:03:32;;;;;;;14.23;5.73;;;;;;;;;;5094021;28;20048;-54
2021/03/30 15:05:59;;;;;;;7.97;5.27;;;;;;;;;;5093517;28;20071;-54
2021/03/30 15:08:25;;;;;;;12.60;5.90;;;;;;;;;;5093669;28;20027;-54
2021/03/30 15:10:52;;;;;;;8.60;4.87;;;;;;;;;;5093668;28;20028;-54
2021/03/30 15:13:19;;;;;;;10.20;5.50;;;;;;;;;;5093369;28;20457;-54
2021/03/30 15:15:46;;;;;;;9.90;5.50;;;;;;;;;;5093525;28;20042;-54
2021/03/30 15:18:13;;;;;;;13.17;4.80;;;;;;;;;;5093500;28;20051;-54
2021/03/30 15:20:40;;;;;;;8.73;4.83;;;;;;;;;;5093413;28;20023;-54
2021/03/30 15:23:07;;;;;;;8.90;5.07;;;;;;;;;;5093397;28;20026;-55